Saint-Simon-De-Rimouski, Canada
Current Conditions -  °F | °C
As of 4:00 AM on Saturday 25 Oct 2014 (Local Time) from CYYY Reporting Station
Overcast Overcast  
Wind Chill: 37°   Ceiling: 10000
Heat Index: 41°   Visibility: 30mi
Dew Point: 30°   Wind: 6mph
Humidity: 65%   Direction: 240°WSW
Pressure: 29.68"   Gusts: NA
Location:  48.2°N, 69.02°W
Report Text: CYYY 250800Z 24005KT 30SM OVC100 05/M01 A2968 RMK AC8 SLP053
Loading
Personal Weather Stations






























Interactive Weather Map
Tropical Storm Tracking
New forecast layout! Learn more

10-Day Weather Forecast

Advertisements
Track Severe Weather on mobile